createdAt,value
2022-09-23T00:02:16.580Z,16.23
2022-09-23T00:04:42.937Z,15.52
2022-09-23T00:07:09.383Z,17.52
2022-09-23T00:09:35.753Z,17.42
2022-09-23T00:12:05.686Z,15.52
2022-09-23T00:14:34.521Z,14.63
2022-09-23T00:17:00.964Z,13.63
2022-09-23T00:19:27.301Z,15.48
2022-09-23T00:21:53.599Z,16.95
2022-09-23T00:24:19.898Z,13.30
2022-09-23T00:26:46.190Z,14.77
2022-09-23T00:29:12.533Z,16.05
2022-09-23T00:31:38.829Z,17.00
2022-09-23T00:34:05.114Z,14.40
2022-09-23T00:36:31.482Z,13.20
2022-09-23T00:38:58.108Z,12.23
2022-09-23T00:41:25.561Z,11.45
2022-09-23T00:43:54.920Z,11.73
2022-09-23T00:46:39.870Z,11.63
2022-09-23T00:49:12.381Z,13.43
2022-09-23T00:51:44.268Z,12.25
2022-09-23T00:54:11.266Z,17.45
2022-09-23T00:56:39.503Z,15.98
2022-09-23T00:59:09.000Z,16.48
2022-09-23T01:01:36.405Z,18.63
2022-09-23T01:04:03.546Z,18.95
2022-09-23T01:06:30.184Z,16.58
2022-09-23T01:08:56.520Z,15.07
2022-09-23T01:11:47.849Z,15.43
2022-09-23T01:14:29.652Z,13.25
2022-09-23T01:17:16.234Z,15.32
2022-09-23T01:20:04.215Z,14.32
2022-09-23T01:22:43.287Z,13.82
2022-09-23T01:25:59.413Z,13.60
2022-09-23T01:28:59.905Z,19.50
2022-09-23T01:31:45.890Z,16.25
2022-09-23T01:34:21.732Z,17.08
2022-09-23T01:37:12.954Z,15.70
2022-09-23T01:39:49.278Z,14.80
2022-09-23T01:42:26.923Z,15.75
2022-09-23T01:45:00.438Z,15.98
2022-09-23T01:47:58.842Z,17.30
2022-09-23T01:50:31.982Z,12.65
2022-09-23T01:53:05.094Z,11.75
2022-09-23T01:55:38.090Z,11.90
2022-09-23T01:58:11.985Z,12.32
2022-09-23T02:00:44.285Z,13.90
2022-09-23T02:05:49.368Z,12.93
2022-09-23T02:08:24.398Z,12.32
2022-09-23T02:10:54.969Z,14.80
2022-09-23T02:13:39.793Z,15.98
2022-09-23T02:16:14.965Z,14.52
2022-09-23T02:18:51.790Z,12.48
2022-09-23T02:21:21.578Z,11.70
2022-09-23T02:24:02.002Z,12.60
2022-09-23T02:26:32.554Z,13.43
2022-09-23T02:29:20.237Z,11.85
2022-09-23T02:32:00.665Z,11.60
2022-09-23T02:34:45.058Z,10.52
2022-09-23T02:40:03.870Z,10.30
2022-09-23T02:43:08.618Z,12.07
2022-09-23T02:45:35.121Z,10.98
2022-09-23T02:48:09.038Z,11.23
2022-09-23T02:50:37.035Z,12.75
2022-09-23T02:53:03.660Z,13.68
2022-09-23T02:55:30.453Z,14.40
2022-09-23T02:57:57.653Z,13.68
2022-09-23T03:00:24.588Z,16.52
2022-09-23T03:03:02.742Z,16.80
2022-09-23T03:05:33.755Z,15.10
2022-09-23T03:08:37.458Z,18.88
2022-09-23T03:11:11.714Z,14.32
2022-09-23T03:13:52.163Z,16.15
2022-09-23T03:16:29.630Z,14.48
2022-09-23T03:19:25.130Z,14.93
2022-09-23T03:22:20.617Z,15.70
2022-09-23T03:24:53.294Z,14.40
2022-09-23T03:27:23.873Z,22.92
2022-09-23T03:29:52.831Z,13.52
2022-09-23T03:32:22.825Z,12.05
2022-09-23T03:34:53.481Z,14.10
2022-09-23T03:37:47.756Z,13.73
2022-09-23T03:40:26.184Z,12.35
2022-09-23T03:42:54.922Z,12.55
2022-09-23T03:45:26.104Z,13.38
2022-09-23T03:47:52.515Z,18.13
2022-09-23T03:50:19.107Z,17.05
2022-09-23T03:52:45.413Z,15.70
2022-09-23T03:55:11.831Z,15.38
2022-09-23T03:57:38.443Z,16.27
2022-09-23T04:00:06.604Z,15.38
2022-09-23T04:02:32.982Z,13.23
2022-09-23T04:04:59.386Z,13.68
2022-09-23T04:07:25.685Z,16.13
2022-09-23T04:12:18.393Z,17.27
2022-09-23T04:14:45.204Z,16.35
2022-09-23T04:17:12.268Z,17.30
2022-09-23T04:19:38.981Z,17.10
2022-09-23T04:22:06.053Z,18.08
2022-09-23T04:24:32.546Z,17.92
2022-09-23T04:26:58.970Z,17.95
2022-09-23T04:29:25.994Z,17.00
2022-09-23T04:31:52.848Z,15.90
2022-09-23T04:34:20.250Z,13.93
2022-09-23T04:36:47.827Z,13.95
2022-09-23T04:39:15.992Z,14.65
2022-09-23T04:41:43.413Z,19.77
2022-09-23T04:44:11.962Z,19.25
2022-09-23T04:46:39.389Z,19.02
2022-09-23T04:49:07.125Z,17.65
2022-09-23T04:51:33.689Z,20.08
2022-09-23T04:54:00.305Z,22.55
2022-09-23T04:56:29.459Z,24.60
2022-09-23T04:58:55.796Z,25.30
2022-09-23T05:01:24.917Z,28.38
2022-09-23T05:03:53.988Z,25.67
2022-09-23T05:06:21.434Z,24.50
2022-09-23T05:08:51.422Z,29.20
2022-09-23T05:11:18.476Z,29.77
2022-09-23T05:13:48.716Z,30.65
2022-09-23T05:16:15.945Z,31.67
2022-09-23T05:18:43.634Z,32.00
2022-09-23T05:21:11.445Z,33.03
2022-09-23T05:23:39.031Z,32.28
2022-09-23T05:26:07.758Z,30.75
2022-09-23T05:28:34.805Z,30.85
2022-09-23T05:31:22.987Z,30.20
2022-09-23T05:33:55.461Z,24.15
2022-09-23T05:36:22.369Z,26.70
2022-09-23T05:38:49.956Z,28.65
2022-09-23T05:41:18.750Z,27.17
2022-09-23T05:43:45.078Z,29.80
2022-09-23T05:46:12.354Z,33.83
2022-09-23T05:48:39.904Z,26.25
2022-09-23T05:51:08.478Z,33.13
2022-09-23T05:53:34.879Z,25.38
2022-09-23T05:56:01.471Z,22.65
2022-09-23T05:58:27.805Z,25.65
2022-09-23T06:00:54.298Z,24.88
2022-09-23T06:03:21.181Z,20.92
2022-09-23T06:05:47.790Z,21.02
2022-09-23T06:08:14.786Z,21.08
2022-09-23T06:10:44.132Z,25.10
2022-09-23T06:13:11.235Z,25.77
2022-09-23T06:15:38.746Z,22.92
2022-09-23T06:18:06.318Z,23.02
2022-09-23T06:20:33.973Z,23.67
2022-09-23T06:23:10.907Z,24.90
2022-09-23T06:25:38.298Z,23.77
2022-09-23T06:28:05.023Z,23.85
2022-09-23T06:30:31.316Z,25.67
2022-09-23T06:32:58.135Z,26.48
2022-09-23T06:35:27.746Z,22.63
2022-09-23T06:37:55.134Z,24.25
2022-09-23T06:40:22.601Z,22.92
2022-09-23T06:42:56.730Z,26.05
2022-09-23T06:45:23.114Z,26.55
2022-09-23T06:47:53.658Z,24.30
2022-09-23T06:50:19.967Z,23.58
2022-09-23T06:52:54.445Z,21.35
2022-09-23T06:55:20.722Z,21.98
2022-09-23T06:57:47.025Z,22.48
2022-09-23T07:00:13.792Z,24.25
2022-09-23T07:02:41.179Z,22.65
2022-09-23T07:05:08.525Z,21.83
2022-09-23T07:07:35.090Z,21.75
2022-09-23T07:10:01.395Z,22.55
2022-09-23T07:12:27.702Z,22.10
2022-09-23T07:14:54.039Z,21.50
2022-09-23T07:17:20.339Z,19.13
2022-09-23T07:19:46.645Z,22.63
2022-09-23T07:22:12.954Z,21.20
2022-09-23T07:24:39.259Z,20.00
2022-09-23T07:27:05.623Z,18.15
2022-09-23T07:29:43.776Z,22.42
2022-09-23T07:32:14.536Z,17.10
2022-09-23T07:34:41.087Z,17.95
2022-09-23T07:37:07.382Z,19.35
2022-09-23T07:39:33.676Z,15.73
2022-09-23T07:42:00.005Z,17.83
2022-09-23T07:44:26.314Z,14.57
2022-09-23T07:46:52.670Z,16.75
2022-09-23T07:49:19.031Z,16.20
2022-09-23T07:51:45.335Z,15.95
2022-09-23T07:54:14.824Z,15.50
2022-09-23T07:56:42.638Z,14.65
2022-09-23T07:59:12.565Z,13.93
2022-09-23T08:01:43.839Z,15.20
2022-09-23T08:04:14.390Z,14.15
2022-09-23T08:06:41.974Z,12.40
2022-09-23T08:09:08.422Z,13.73
2022-09-23T08:11:34.901Z,15.25
2022-09-23T08:14:01.193Z,13.50
2022-09-23T08:16:27.570Z,13.10
2022-09-23T08:18:54.006Z,12.88
2022-09-23T08:21:21.791Z,13.55
2022-09-23T08:23:48.517Z,13.82
2022-09-23T08:26:20.725Z,13.30
2022-09-23T08:28:48.805Z,13.50
2022-09-23T08:31:15.220Z,13.80
2022-09-23T08:33:41.650Z,13.98
2022-09-23T08:36:08.148Z,14.35
2022-09-23T08:38:34.491Z,15.10
2022-09-23T08:41:27.064Z,14.65
2022-09-23T08:43:59.585Z,13.18
2022-09-23T08:46:34.997Z,14.35
2022-09-23T08:49:02.101Z,13.23
2022-09-23T08:51:35.614Z,13.18
2022-09-23T08:54:02.178Z,19.52
2022-09-23T08:56:29.287Z,16.50
2022-09-23T08:58:58.690Z,14.45
2022-09-23T09:01:37.024Z,14.10
2022-09-23T09:04:18.339Z,15.00
2022-09-23T09:06:54.000Z,14.70
2022-09-23T09:09:26.915Z,16.38
2022-09-23T09:12:01.464Z,14.15
2022-09-23T09:14:37.097Z,14.85
2022-09-23T09:17:09.385Z,13.32
2022-09-23T09:19:54.996Z,12.73
2022-09-23T09:25:33.427Z,14.02
2022-09-23T09:28:01.303Z,13.38
2022-09-23T09:30:28.223Z,13.98
2022-09-23T09:33:01.439Z,13.98
2022-09-23T09:35:40.491Z,14.30
2022-09-23T09:38:07.288Z,13.48
2022-09-23T09:40:34.401Z,13.13
2022-09-23T09:43:02.287Z,13.30
2022-09-23T09:45:57.272Z,13.23
2022-09-23T09:48:32.614Z,15.40
2022-09-23T09:51:17.698Z,13.45
2022-09-23T09:53:44.066Z,13.00
2022-09-23T09:56:15.898Z,13.85
2022-09-23T09:58:49.648Z,13.48
2022-09-23T10:01:28.477Z,13.00
2022-09-23T10:03:59.150Z,12.73
2022-09-23T10:06:28.934Z,12.75
2022-09-23T10:09:01.127Z,13.05
2022-09-23T10:11:28.819Z,13.25
2022-09-23T10:14:15.446Z,12.18
2022-09-23T10:16:41.805Z,13.98
2022-09-23T10:19:13.497Z,13.38
2022-09-23T10:21:40.046Z,12.05
2022-09-23T10:24:07.611Z,13.18
2022-09-23T10:26:42.674Z,13.68
2022-09-23T10:29:33.679Z,13.30
2022-09-23T10:32:34.764Z,13.70
2022-09-23T10:35:12.984Z,11.65
2022-09-23T10:37:45.887Z,11.98
2022-09-23T10:40:16.874Z,13.93
2022-09-23T10:42:54.644Z,12.57
2022-09-23T10:45:27.951Z,16.50
2022-09-23T10:48:09.819Z,14.23
2022-09-23T10:50:38.815Z,14.82
2022-09-23T10:53:34.091Z,14.77
2022-09-23T10:56:06.455Z,14.50
2022-09-23T10:58:51.414Z,13.18
2022-09-23T11:01:43.629Z,13.20
2022-09-23T11:04:35.468Z,14.73
2022-09-23T11:07:27.348Z,13.35
2022-09-23T11:10:28.918Z,13.35
2022-09-23T11:13:17.429Z,12.07
2022-09-23T11:16:24.542Z,11.40
2022-09-23T11:19:26.091Z,12.77
2022-09-23T11:22:01.066Z,12.07
2022-09-23T11:24:30.375Z,13.18
2022-09-23T11:27:02.326Z,11.05
2022-09-23T11:32:41.226Z,14.45
2022-09-23T11:35:19.387Z,11.30
2022-09-23T11:37:50.297Z,11.95
2022-09-23T11:40:36.220Z,13.63
2022-09-23T11:43:23.407Z,13.23
2022-09-23T11:46:18.154Z,20.05
2022-09-23T11:49:14.110Z,11.77
2022-09-23T11:51:49.747Z,13.63
2022-09-23T11:54:22.656Z,14.25
2022-09-23T11:56:54.448Z,13.45
2022-09-23T11:59:46.617Z,13.48
2022-09-23T12:02:25.723Z,14.15
2022-09-23T12:05:03.554Z,11.23
2022-09-23T12:07:43.895Z,12.48
2022-09-23T12:10:11.740Z,11.90
2022-09-23T12:12:45.073Z,11.50
2022-09-23T12:15:20.693Z,13.43
2022-09-23T12:18:13.491Z,11.35
2022-09-23T12:20:45.873Z,11.18
2022-09-23T12:23:22.872Z,13.18
2022-09-23T12:25:54.431Z,12.50
2022-09-23T12:28:30.607Z,12.77
2022-09-23T12:31:00.177Z,11.90
2022-09-23T12:33:32.850Z,10.68
2022-09-23T12:36:05.112Z,11.38
2022-09-23T12:38:48.859Z,13.05
2022-09-23T12:41:26.777Z,11.45
2022-09-23T12:46:24.058Z,13.77
2022-09-23T12:48:56.106Z,12.27
2022-09-23T12:51:22.817Z,12.40
2022-09-23T12:53:49.049Z,14.07
2022-09-23T12:56:23.007Z,10.70
2022-09-23T12:58:49.266Z,10.55
2022-09-23T13:01:15.748Z,10.65
2022-09-23T13:03:46.676Z,9.48
2022-09-23T13:06:13.161Z,9.65
2022-09-23T13:08:42.570Z,9.95
2022-09-23T13:11:23.493Z,11.27
2022-09-23T13:13:50.703Z,13.20
2022-09-23T13:16:29.909Z,11.85
2022-09-23T13:19:01.237Z,10.63
2022-09-23T13:21:42.471Z,9.05
2022-09-23T13:24:24.091Z,11.82
2022-09-23T13:26:53.802Z,9.57
2022-09-23T13:29:36.556Z,10.13
2022-09-23T13:32:03.287Z,8.43
2022-09-23T13:34:33.122Z,8.90
2022-09-23T13:37:22.784Z,6.57
2022-09-23T13:39:50.151Z,8.75
2022-09-23T13:42:26.598Z,9.93
2022-09-23T13:44:57.650Z,6.43
2022-09-23T13:47:27.661Z,5.82
2022-09-23T13:49:54.418Z,8.63
2022-09-23T13:52:29.609Z,7.00
2022-09-23T13:54:55.961Z,8.80
2022-09-23T13:57:31.122Z,7.78
2022-09-23T14:00:21.285Z,9.07
2022-09-23T14:02:47.761Z,9.13
2022-09-23T14:05:22.474Z,10.00
2022-09-23T14:07:50.090Z,7.70
2022-09-23T14:10:23.406Z,9.73
2022-09-23T14:12:52.510Z,8.50
2022-09-23T14:15:20.370Z,10.20
2022-09-23T14:17:53.729Z,8.40
2022-09-23T14:20:22.182Z,8.63
2022-09-23T14:22:48.593Z,10.43
2022-09-23T14:25:17.377Z,11.38
2022-09-23T14:27:44.831Z,9.13
2022-09-23T14:30:16.059Z,9.77
2022-09-23T14:32:42.480Z,9.32
2022-09-23T14:35:24.231Z,9.73
2022-09-23T14:37:55.144Z,9.65
2022-09-23T14:40:26.289Z,8.73
2022-09-23T14:43:20.664Z,9.80
2022-09-23T14:45:52.702Z,9.43
2022-09-23T14:48:24.275Z,7.53
2022-09-23T14:50:59.273Z,7.70
2022-09-23T14:53:44.896Z,10.13
2022-09-23T14:56:16.449Z,9.70
2022-09-23T14:58:53.695Z,9.88
2022-09-23T15:01:32.762Z,9.00
2022-09-23T15:04:14.015Z,9.25
2022-09-23T15:06:45.669Z,10.15
2022-09-23T15:09:20.416Z,12.10
2022-09-23T15:11:47.184Z,12.85
2022-09-23T15:14:36.650Z,10.20
2022-09-23T15:17:02.415Z,9.85
2022-09-23T15:19:29.373Z,12.02
2022-09-23T15:21:56.043Z,11.07
2022-09-23T15:24:39.893Z,14.27
2022-09-23T15:27:33.338Z,11.23
2022-09-23T15:30:15.032Z,12.27
2022-09-23T15:32:42.352Z,12.55
2022-09-23T15:35:15.726Z,14.73
2022-09-23T15:37:44.009Z,11.88
2022-09-23T15:40:23.048Z,13.25
2022-09-23T15:42:49.842Z,11.65
2022-09-23T15:45:16.135Z,12.65
2022-09-23T15:47:42.453Z,12.55
2022-09-23T15:50:12.258Z,11.75
2022-09-23T15:52:38.600Z,15.95
2022-09-23T15:55:20.907Z,13.10
2022-09-23T15:57:48.182Z,13.32
2022-09-23T16:00:14.991Z,15.30
2022-09-23T16:02:43.977Z,12.13
2022-09-23T16:05:24.614Z,14.05
2022-09-23T16:07:50.911Z,11.98
2022-09-23T16:10:17.365Z,13.30
2022-09-23T16:12:43.723Z,13.75
2022-09-23T16:15:21.292Z,14.80
2022-09-23T16:17:47.615Z,14.57
2022-09-23T16:20:14.845Z,19.17
2022-09-23T16:22:41.202Z,12.70
2022-09-23T16:25:11.777Z,16.83
2022-09-23T16:27:38.294Z,12.85
2022-09-23T16:30:05.132Z,15.23
2022-09-23T16:32:31.435Z,13.52
2022-09-23T16:34:57.789Z,13.02
2022-09-23T16:37:24.132Z,14.38
2022-09-23T16:39:51.033Z,13.23
2022-09-23T16:42:17.323Z,14.40
2022-09-23T16:44:43.631Z,14.43
2022-09-23T16:47:09.943Z,14.70
2022-09-23T16:49:36.289Z,15.63
2022-09-23T16:52:02.694Z,13.88
2022-09-23T16:54:29.007Z,16.65
2022-09-23T16:56:55.303Z,15.07
2022-09-23T16:59:21.613Z,14.27
2022-09-23T17:01:48.010Z,16.40
2022-09-23T17:04:16.782Z,15.93
2022-09-23T17:06:44.436Z,15.68
2022-09-23T17:09:11.589Z,15.35
2022-09-23T17:11:37.954Z,15.02
2022-09-23T17:14:05.364Z,15.75
2022-09-23T17:16:34.311Z,16.60
2022-09-23T17:19:09.253Z,20.40
2022-09-23T17:21:35.685Z,17.48
2022-09-23T17:24:02.276Z,14.90
2022-09-23T17:26:29.335Z,16.40
2022-09-23T17:28:57.726Z,15.40
2022-09-23T17:31:25.137Z,16.08
2022-09-23T17:33:52.719Z,15.23
2022-09-23T17:36:20.176Z,17.67
2022-09-23T17:38:48.198Z,18.10
2022-09-23T17:41:15.588Z,22.63
2022-09-23T17:43:41.908Z,16.25
2022-09-23T17:46:11.410Z,14.95
2022-09-23T17:48:40.182Z,15.60
2022-09-23T17:51:13.505Z,15.52
2022-09-23T17:53:41.548Z,14.88
2022-09-23T17:56:12.544Z,13.25
2022-09-23T17:58:39.044Z,15.13
2022-09-23T18:01:12.551Z,15.50
2022-09-23T18:03:39.402Z,15.05
2022-09-23T18:06:17.568Z,13.60
2022-09-23T18:08:45.426Z,15.65
2022-09-23T18:11:14.494Z,12.65
2022-09-23T18:13:40.844Z,13.35
2022-09-23T18:16:07.400Z,14.18
2022-09-23T18:18:33.831Z,19.95
2022-09-23T18:21:04.391Z,18.05
2022-09-23T18:23:30.769Z,16.23
2022-09-23T18:25:57.159Z,17.45
2022-09-23T18:28:23.634Z,18.80
2022-09-23T18:30:54.621Z,17.45
2022-09-23T18:33:22.124Z,17.92
2022-09-23T18:35:48.447Z,16.17
2022-09-23T18:38:15.049Z,17.17
2022-09-23T18:40:55.938Z,15.23
2022-09-23T18:43:25.705Z,17.83
2022-09-23T18:45:56.998Z,15.00
2022-09-23T18:48:23.483Z,17.70
2022-09-23T18:50:49.765Z,20.67
2022-09-23T18:53:16.093Z,18.80
2022-09-23T18:55:42.435Z,17.00
2022-09-23T18:58:08.721Z,19.85
2022-09-23T19:00:35.244Z,18.67
2022-09-23T19:03:01.785Z,20.60
2022-09-23T19:05:28.081Z,21.02
2022-09-23T19:07:54.390Z,20.65
2022-09-23T19:10:20.688Z,20.33
2022-09-23T19:12:47.028Z,19.67
2022-09-23T19:15:13.367Z,19.00
2022-09-23T19:17:39.663Z,18.30
2022-09-23T19:20:06.546Z,21.73
2022-09-23T19:22:32.846Z,20.75
2022-09-23T19:24:59.148Z,21.00
2022-09-23T19:27:25.440Z,20.42
2022-09-23T19:29:51.741Z,21.92
2022-09-23T19:32:18.022Z,21.52
2022-09-23T19:34:44.353Z,20.95
2022-09-23T19:37:10.634Z,23.90
2022-09-23T19:39:36.925Z,24.13
2022-09-23T19:42:03.381Z,27.05
2022-09-23T19:44:29.664Z,28.20
2022-09-23T19:46:57.303Z,23.13
2022-09-23T19:49:24.234Z,25.20
2022-09-23T19:51:51.071Z,27.33
2022-09-23T19:54:17.466Z,24.38
2022-09-23T19:56:43.808Z,28.65
2022-09-23T19:59:10.257Z,27.25
2022-09-23T20:01:36.627Z,25.95
2022-09-23T20:04:03.536Z,27.80
2022-09-23T20:06:34.486Z,27.85
2022-09-23T20:09:01.407Z,28.83
2022-09-23T20:11:29.020Z,29.88
2022-09-23T20:14:00.823Z,28.92
2022-09-23T20:18:59.271Z,27.52
2022-09-23T20:21:26.231Z,29.73
2022-09-23T20:23:52.863Z,31.42
2022-09-23T20:26:19.152Z,31.15
2022-09-23T20:28:45.806Z,28.38
2022-09-23T20:31:12.967Z,31.38
2022-09-23T20:33:39.938Z,31.38
2022-09-23T20:36:06.330Z,31.95
2022-09-23T20:38:32.645Z,30.25
2022-09-23T20:40:58.995Z,32.22
2022-09-23T20:43:25.699Z,32.35
2022-09-23T20:45:53.039Z,32.65
2022-09-23T20:48:23.602Z,31.92
2022-09-23T20:50:50.458Z,35.47
2022-09-23T20:53:18.160Z,31.35
2022-09-23T20:55:55.972Z,32.33
2022-09-23T20:58:29.487Z,30.80
2022-09-23T21:01:16.337Z,32.50
2022-09-23T21:03:45.047Z,37.15
2022-09-23T21:06:13.526Z,33.70
2022-09-23T21:08:40.690Z,34.17
2022-09-23T21:11:11.193Z,35.83
2022-09-23T21:13:37.743Z,31.50
2022-09-23T21:16:05.700Z,34.53
2022-09-23T21:18:32.490Z,33.03
2022-09-23T21:20:59.892Z,38.50
2022-09-23T21:23:28.006Z,34.67
2022-09-23T21:26:08.372Z,33.90
2022-09-23T21:28:43.039Z,34.13
2022-09-23T21:31:18.358Z,34.50
2022-09-23T21:33:44.702Z,32.50
2022-09-23T21:36:10.981Z,39.10
2022-09-23T21:38:37.794Z,33.25
2022-09-23T21:41:07.120Z,34.20
2022-09-23T21:43:35.437Z,37.75
2022-09-23T21:46:03.865Z,33.92
2022-09-23T21:48:34.593Z,35.90
2022-09-23T21:51:03.807Z,37.67
2022-09-23T21:53:31.709Z,31.90
2022-09-23T21:56:03.003Z,35.05
2022-09-23T21:58:31.063Z,30.58
2022-09-23T22:00:58.129Z,33.75
2022-09-23T22:03:25.303Z,32.17
2022-09-23T22:06:02.574Z,29.65
2022-09-23T22:08:34.151Z,31.80
2022-09-23T22:11:05.775Z,31.42
2022-09-23T22:13:32.146Z,29.13
2022-09-23T22:16:03.103Z,28.67
2022-09-23T22:18:29.686Z,33.88
2022-09-23T22:20:57.828Z,30.85
2022-09-23T22:23:24.492Z,29.73
2022-09-23T22:26:00.671Z,27.90
2022-09-23T22:28:29.203Z,32.28
2022-09-23T22:30:57.840Z,29.73
2022-09-23T22:33:24.238Z,33.45
2022-09-23T22:35:50.543Z,28.70
2022-09-23T22:38:16.845Z,33.90
2022-09-23T22:40:43.349Z,32.40
2022-09-23T22:43:09.920Z,29.30
2022-09-23T22:45:36.255Z,30.55
2022-09-23T22:48:04.308Z,32.17
2022-09-23T22:50:30.597Z,31.27
2022-09-23T22:52:57.491Z,29.60
2022-09-23T22:55:23.827Z,31.70
2022-09-23T22:57:50.357Z,30.75
2022-09-23T23:00:16.797Z,31.30
2022-09-23T23:02:43.141Z,32.22
2022-09-23T23:05:09.626Z,27.15
2022-09-23T23:07:35.949Z,31.48
2022-09-23T23:10:02.295Z,31.13
2022-09-23T23:12:28.601Z,29.98
2022-09-23T23:14:54.925Z,30.73
2022-09-23T23:17:21.257Z,31.40
2022-09-23T23:19:47.566Z,29.88
2022-09-23T23:22:13.902Z,32.70
2022-09-23T23:24:40.202Z,35.05
2022-09-23T23:27:06.491Z,29.42
2022-09-23T23:29:32.787Z,28.58
2022-09-23T23:31:59.074Z,31.67
2022-09-23T23:34:25.440Z,28.95
2022-09-23T23:36:52.995Z,32.10
2022-09-23T23:39:19.301Z,33.70
2022-09-23T23:41:45.648Z,32.38
2022-09-23T23:44:12.577Z,29.10
2022-09-23T23:46:38.966Z,33.63
2022-09-23T23:49:05.370Z,35.25
2022-09-23T23:51:32.006Z,34.63
2022-09-23T23:53:59.298Z,35.70
2022-09-23T23:56:26.606Z,32.08
2022-09-23T23:58:57.837Z,34.53
